^^
Datos históricos de la estación: Murcia-Puente Tocinos
Diario Informe para Mayo 9, 2019 Unidades:  Métrico    Ingés   Ambas
Diario Semanal Mensual Anual
  Máxima: Mínima: Promedio:
Temperatura: 30.2 °C 20.1 °C 24.2 °C
Punto de rocio: 19.8 °C 15.4 °C 17.8 °C
Humedad: 84% 44% 69%
Velocidad viento: 18.4km/h 0km/h 6km/h
Racha viento: 33.8km/h - -
Viento- - SSE
Presión: 1016.5 hPa 1011.3 hPa -
Precipitación: 0.0 mm    
 
 
Tabla de datos para Mayo 9, 2019
Hora Temperatura Punto de rocio Presión Viento Velocidad viento Racha viento Humedad Intensidad lluvia(por hora) Nubes
00:04 22.8 °C 18.3 °C 1016.2 hPa ESE 5.8 km/h 9.7 km/h 76% 0.0 mm
00:09 22.8 °C 18.3 °C 1016.2 hPa Este 5.4 km/h 8 km/h 75.5% 0.0 mm
00:14 22.8 °C 18.1 °C 1016.2 hPa Este 3.2 km/h 8 km/h 75% 0.0 mm
00:19 22.7 °C 18.1 °C 1016.3 hPa Este 3.1 km/h 3.9 km/h 75.1% 0.0 mm
00:24 22.6 °C 18.2 °C 1016.3 hPa Este 2.2 km/h 4.7 km/h 76% 0.0 mm
00:29 22.5 °C 18.1 °C 1016.3 hPa Este 2.2 km/h 4.8 km/h 76% 0.0 mm
00:34 22.4 °C 18 °C 1016.3 hPa Este 2.2 km/h 3.7 km/h 76% 0.0 mm
00:39 22.4 °C 18 °C 1016.3 hPa Este 1.9 km/h 4.7 km/h 76.2% 0.0 mm
00:44 22.4 °C 18.2 °C 1016.3 hPa Calm   7.4 km/h 77% 0.0 mm
00:49 22.4 °C 18.2 °C 1016.3 hPa ESE 0.5 km/h 8 km/h 77% 0.0 mm
00:54 22.4 °C 18.2 °C 1016.3 hPa ESE 3.2 km/h 8 km/h 77% 0.0 mm
00:59 22.4 °C 18.2 °C 1016.3 hPa Este 3.2 km/h 7.4 km/h 77% 0.0 mm
01:04 22.3 °C 18.1 °C 1016.4 hPa ESE 3.2 km/h 9.3 km/h 77.1% 0.0 mm
01:09 22.2 °C 18.1 °C 1016.4 hPa ESE 3.3 km/h 9.7 km/h 77.5% 0.0 mm
01:14 22.2 °C 18.1 °C 1016.4 hPa SE 3.9 km/h 8 km/h 78% 0.0 mm
01:19 22.1 °C 18.1 °C 1016.5 hPa SE 3.6 km/h 4.8 km/h 78% 0.0 mm
01:24 22.1 °C 18.1 °C 1016.5 hPa ESE 2.2 km/h 5.6 km/h 78% 0.0 mm
01:29 22.1 °C 18 °C 1016.5 hPa ESE 2.3 km/h 5.6 km/h 78% 0.0 mm
01:34 21.9 °C 17.9 °C 1016.5 hPa Este 2.9 km/h 5.6 km/h 78% 0.0 mm
01:39 21.9 °C 17.9 °C 1016.5 hPa NE 2.9 km/h 5 km/h 78.2% 0.0 mm
01:44 21.8 °C 18 °C 1016.5 hPa NE 3.2 km/h 5.6 km/h 79% 0.0 mm
01:49 21.8 °C 18 °C 1016.5 hPa NE 3.1 km/h 3.9 km/h 79% 0.0 mm
01:54 21.7 °C 17.9 °C 1016.5 hPa NE 2.2 km/h 3.7 km/h 79% 0.0 mm
01:59 21.7 °C 17.9 °C 1016.5 hPa NE 1.8 km/h 3.7 km/h 79% 0.0 mm
02:04 21.7 °C 17.9 °C 1016.5 hPa Calm   4.7 km/h 79% 0.0 mm
02:09 21.7 °C 17.9 °C 1016.5 hPa NNE 0.4 km/h 7.4 km/h 79% 0.0 mm
02:14 21.7 °C 17.9 °C 1016.5 hPa NNE 2.9 km/h 8 km/h 79% 0.0 mm
02:19 21.6 °C 17.9 °C 1016.5 hPa NNE 2.5 km/h 4.8 km/h 79.4% 0.0 mm
02:24 21.6 °C 18 °C 1016.4 hPa Calm   1.6 km/h 80% 0.0 mm
02:29 21.6 °C 18 °C 1016.4 hPa Calm   4.7 km/h 80% 0.0 mm
02:34 21.6 °C 17.8 °C 1016.4 hPa Calm   4.8 km/h 79.1% 0.0 mm
02:39 21.4 °C 17.8 °C 1016.3 hPa NNO 0.4 km/h 4.7 km/h 79.9% 0.0 mm
02:44 21.4 °C 17.8 °C 1016.2 hPa NNO 2.9 km/h 4.8 km/h 80% 0.0 mm
02:49 21.3 °C 17.7 °C 1016.2 hPa NNO 2.5 km/h 3.2 km/h 80% 0.0 mm
02:54 21.3 °C 17.8 °C 1016.2 hPa Calm   4.7 km/h 80.4% 0.0 mm
02:59 21.2 °C 17.8 °C 1016.2 hPa Este 0.6 km/h 7.6 km/h 81% 0.0 mm
03:04 21.2 °C 17.8 °C 1016.2 hPa ESE 3.2 km/h 9.5 km/h 81% 0.0 mm
03:09 21.1 °C 17.8 °C 1016.0 hPa ESE 3.6 km/h 9.7 km/h 81% 0.0 mm
03:14 21 °C 17.8 °C 1016.0 hPa ESE 5.8 km/h 9.7 km/h 81.9% 0.0 mm
03:19 21 °C 17.8 °C 1016.0 hPa ESE 5.6 km/h 9.7 km/h 82% 0.0 mm
03:24 21 °C 17.8 °C 1015.9 hPa SE 4.7 km/h 8 km/h 82% 0.0 mm
03:29 21.1 °C 17.9 °C 1015.9 hPa ESE 4.4 km/h 8 km/h 82% 0.0 mm
03:34 21.1 °C 17.9 °C 1015.9 hPa ESE 3.2 km/h 3.7 km/h 82% 0.0 mm
03:39 21.1 °C 17.9 °C 1015.9 hPa ESE 3.1 km/h 3.9 km/h 82% 0.0 mm
03:44 21.1 °C 17.9 °C 1015.9 hPa ESE 2.2 km/h 5.6 km/h 82% 0.0 mm
03:49 21.1 °C 17.9 °C 1015.9 hPa ESE 2.4 km/h 5.8 km/h 82% 0.0 mm
03:54 21 °C 17.8 °C 1015.8 hPa ESE 3.2 km/h 6.4 km/h 82% 0.0 mm
03:59 21 °C 18 °C 1015.8 hPa SE 3.2 km/h 7.4 km/h 82.6% 0.0 mm
04:04 21.1 °C 17.9 °C 1015.8 hPa SE 2.9 km/h 8 km/h 82% 0.0 mm
04:09 21.1 °C 17.9 °C 1015.7 hPa SE 2.9 km/h 4.8 km/h 82% 0.0 mm
04:14 21.1 °C 17.9 °C 1015.7 hPa SE 2.9 km/h 3.2 km/h 82% 0.0 mm
04:19 21.1 °C 17.9 °C 1015.7 hPa SE 2.5 km/h   82% 0.0 mm
04:24 21.1 °C 17.9 °C 1015.6 hPa Calm     82% 0.0 mm
04:29 21 °C 17.9 °C 1015.6 hPa Calm   2.3 km/h 82% 0.0 mm
04:34 21 °C 17.8 °C 1015.6 hPa Calm   1.6 km/h 82% 0.0 mm
04:39 20.9 °C 17.7 °C 1015.6 hPa Calm     82% 0.0 mm
04:44 20.8 °C 17.6 °C 1015.6 hPa Calm     82% 0.0 mm
04:49 20.7 °C 17.7 °C 1015.6 hPa Calm   5.8 km/h 82.9% 0.0 mm
04:54 20.6 °C 17.6 °C 1015.6 hPa Calm   6.4 km/h 83% 0.0 mm
04:59 20.5 °C 17.5 °C 1015.6 hPa ONO 0.4 km/h 6.4 km/h 83% 0.0 mm
05:04 20.4 °C 17.6 °C 1015.6 hPa ONO 2.2 km/h   83.9% 0.0 mm
05:09 20.4 °C 17.6 °C 1015.5 hPa ONO 1.9 km/h   84% 0.0 mm
05:14 20.4 °C 17.6 °C 1015.5 hPa Calm     84% 0.0 mm
05:19 20.4 °C 17.5 °C 1015.5 hPa Calm   5.8 km/h 83.6% 0.0 mm
05:24 20.4 °C 17.4 °C 1015.4 hPa Calm   6.4 km/h 83% 0.0 mm
05:29 20.4 °C 17.3 °C 1015.4 hPa SSO 0.4 km/h 6.4 km/h 82.3% 0.0 mm
05:34 20.4 °C 17.2 °C 1015.4 hPa SSO 2.2 km/h 7.4 km/h 82% 0.0 mm
05:39 20.5 °C 17.2 °C 1015.4 hPa Sur 2.4 km/h 8 km/h 81.5% 0.0 mm
05:44 20.5 °C 17.1 °C 1015.4 hPa SSE 3.2 km/h 7.4 km/h 80.7% 0.0 mm
05:49 20.5 °C 16.9 °C 1015.4 hPa Sur 3.2 km/h 8 km/h 80% 0.0 mm
05:54 20.5 °C 17 °C 1015.2 hPa Sur 3.2 km/h 4.8 km/h 80.4% 0.0 mm
05:59 20.5 °C 17.1 °C 1015.2 hPa Sur 2.6 km/h 4.8 km/h 81% 0.0 mm
06:04 20.4 °C 17.1 °C 1015.3 hPa Calm   4.7 km/h 81% 0.0 mm
06:09 20.4 °C 16.8 °C 1015.3 hPa SSE 0.5 km/h 7.4 km/h 80% 0.0 mm
06:14 20.3 °C 16.7 °C 1015.3 hPa SSE 2.9 km/h 8 km/h 80% 0.0 mm
06:19 20.2 °C 16.6 °C 1015.3 hPa Sur 3.1 km/h 8 km/h 80% 0.0 mm
06:24 20.2 °C 16.6 °C 1015.2 hPa SSE 4.7 km/h 8 km/h 80% 0.0 mm
06:29 20.3 °C 16.6 °C 1015.2 hPa SSE 4.4 km/h 8.4 km/h 79.6% 0.0 mm
06:34 20.2 °C 16.5 °C 1015.3 hPa SSE 3.2 km/h 8 km/h 79.4% 0.0 mm
06:39 20.2 °C 16.6 °C 1015.3 hPa Sur 3.5 km/h 9.5 km/h 80% 0.0 mm
06:44 20.2 °C 16.6 °C 1015.3 hPa SSE 5 km/h 9.7 km/h 80% 0.0 mm
06:49 20.1 °C 16.6 °C 1015.3 hPa Sur 5 km/h 9.5 km/h 80% 0.0 mm
06:54 20.1 °C 16.6 °C 1015.3 hPa Sur 5 km/h 9.7 km/h 80% 0.0 mm
06:59 20.1 °C 16.6 °C 1015.3 hPa SSE 5 km/h 9.7 km/h 80% 0.0 mm
07:04 20.2 °C 16.6 °C 1015.3 hPa SSO 5 km/h 8 km/h 80% 0.0 mm
07:09 20.2 °C 16.6 °C 1015.2 hPa SO 4.8 km/h 8 km/h 80% 0.0 mm
07:14 20.2 °C 16.6 °C 1015.2 hPa SO 3.9 km/h 8 km/h 80% 0.0 mm
07:19 20.3 °C 16.7 °C 1015.2 hPa SO 3.8 km/h 8 km/h 80% 0.0 mm
07:24 20.3 °C 16.7 °C 1015.2 hPa OSO 3.2 km/h 7.6 km/h 80% 0.0 mm
07:29 20.3 °C 16.6 °C 1015.2 hPa Oeste 3.3 km/h 8 km/h 79.5% 0.0 mm
07:34 20.3 °C 16.7 °C 1015.4 hPa OSO 3.9 km/h 9.3 km/h 80% 0.0 mm
07:39 20.2 °C 16.6 °C 1015.4 hPa SO 4 km/h 9.7 km/h 80% 0.0 mm
07:44 20.2 °C 16.6 °C 1015.4 hPa OSO 4.7 km/h 8.4 km/h 80% 0.0 mm
07:49 20.2 °C 16.6 °C 1015.5 hPa OSO 4.7 km/h 8 km/h 80% 0.0 mm
07:54 20.2 °C 16.6 °C 1015.5 hPa SO 4.7 km/h 9.3 km/h 80% 0.0 mm
07:59 20.2 °C 16.6 °C 1015.5 hPa SO 4.9 km/h 10 km/h 80% 0.0 mm
08:04 20.2 °C 16.6 °C 1015.6 hPa SO 5.8 km/h 9.7 km/h 80% 0.0 mm
08:09 20.2 °C 16.6 °C 1015.6 hPa SO 5.8 km/h 11.1 km/h 80% 0.0 mm
08:14 20.2 °C 16.6 °C 1015.6 hPa SSO 5.8 km/h 11.3 km/h 80% 0.0 mm
08:19 20.3 °C 16.7 °C 1015.7 hPa SSO 6 km/h 11.3 km/h 80% 0.0 mm
08:24 20.3 °C 16.7 °C 1015.7 hPa SO 6.9 km/h 13 km/h 80% 0.0 mm
08:29 20.4 °C 16.7 °C 1015.7 hPa SO 6.9 km/h 12.9 km/h 79.6% 0.0 mm
08:34 20.4 °C 16.6 °C 1015.9 hPa SO 6.5 km/h 11.3 km/h 79% 0.0 mm
08:39 20.5 °C 16.7 °C 1015.9 hPa SSO 6.4 km/h 10.3 km/h 79% 0.0 mm
08:44 20.4 °C 16.6 °C 1015.9 hPa SSO 5.8 km/h 11.3 km/h 79% 0.0 mm
08:49 20.3 °C 16.6 °C 1015.9 hPa SSO 6.1 km/h 11.3 km/h 79% 0.0 mm
08:54 20.3 °C 16.6 °C 1015.9 hPa SO 7.6 km/h 11.3 km/h 79% 0.0 mm
08:59 20.4 °C 16.6 °C 1015.9 hPa SO 7.1 km/h 9.7 km/h 79% 0.0 mm
09:04 20.6 °C 16.7 °C 1016.0 hPa SO 5 km/h 9.7 km/h 78.5% 0.0 mm
09:09 20.7 °C 16.8 °C 1016.0 hPa SO 5 km/h 9.7 km/h 78% 0.0 mm
09:14 20.9 °C 16.9 °C 1016.0 hPa SSO 5 km/h 10 km/h 77.9% 0.0 mm
09:19 21 °C 16.9 °C 1016.0 hPa SSO 5.2 km/h 10 km/h 77.8% 0.0 mm
09:24 21.1 °C 17.1 °C 1015.9 hPa Sur 6.4 km/h 9.7 km/h 78% 0.0 mm
09:29 21.2 °C 17.1 °C 1015.9 hPa Sur 6.2 km/h 9.5 km/h 77.3% 0.0 mm
09:34 21.2 °C 17 °C 1016.0 hPa SSE 5 km/h 11.1 km/h 77% 0.0 mm
09:39 21.2 °C 17 °C 1016.0 hPa Sur 5.4 km/h 14.8 km/h 77% 0.0 mm
09:44 21.3 °C 17.1 °C 1016.0 hPa SSE 8.4 km/h 14.5 km/h 77.1% 0.0 mm
09:49 21.4 °C 17.2 °C 1016.0 hPa SE 8.1 km/h 11.3 km/h 77% 0.0 mm
09:54 21.7 °C 17.3 °C 1015.9 hPa SSE 6.9 km/h 11.3 km/h 76.3% 0.0 mm
09:59 21.9 °C 17.4 °C 1015.9 hPa Sur 6.7 km/h 9.7 km/h 75.8% 0.0 mm
10:04 22 °C 17.4 °C 1016.0 hPa SSO 5.8 km/h 9.7 km/h 75% 0.0 mm
10:09 22.1 °C 17.5 °C 1016.0 hPa SSO 5.7 km/h 9.7 km/h 75.1% 0.0 mm
10:14 22.3 °C 17.6 °C 1016.0 hPa SO 5 km/h 9.5 km/h 75% 0.0 mm
10:19 22.4 °C 17.7 °C 1016.1 hPa SSO 4.9 km/h 9.7 km/h 74.7% 0.0 mm
10:24 22.6 °C 17.8 °C 1016.1 hPa SO 4.7 km/h 10 km/h 74.3% 0.0 mm
10:29 22.8 °C 17.7 °C 1016.1 hPa OSO 4.7 km/h 9.7 km/h 73% 0.0 mm
10:34 22.8 °C 17.8 °C 1016.1 hPa OSO 5 km/h 9.7 km/h 73% 0.0 mm
10:39 23 °C 17.8 °C 1016.0 hPa Oeste 4.7 km/h 8 km/h 72.7% 0.0 mm
10:44 23.3 °C 17.9 °C 1016.0 hPa ONO 3.2 km/h 8.4 km/h 71.8% 0.0 mm
10:49 23.7 °C 18 °C 1016.0 hPa Sur 3.4 km/h 9.5 km/h 70.6% 0.0 mm
10:54 23.8 °C 18 °C 1016.0 hPa SO 4.7 km/h 9.7 km/h 70% 0.0 mm
10:59 24 °C 18.2 °C 1016.0 hPa NO 4.4 km/h 8 km/h 69.9% 0.0 mm
11:04 24.3 °C 18.2 °C 1016.0 hPa SO 3.2 km/h 9.3 km/h 68.5% 0.0 mm
11:09 24.4 °C 18.1 °C 1016.0 hPa Sur 3.3 km/h 9.7 km/h 68% 0.0 mm
11:14 24.6 °C 18.3 °C 1016.0 hPa ESE 3.9 km/h 8.4 km/h 68% 0.0 mm
11:19 24.8 °C 18.3 °C 1016.1 hPa ESE 4 km/h 10 km/h 67.1% 0.0 mm
11:24 25 °C 18.3 °C 1016.1 hPa ENE 5 km/h 9.7 km/h 66.4% 0.0 mm
11:29 25.3 °C 18.5 °C 1016.1 hPa Este 4.8 km/h 8 km/h 65.9% 0.0 mm
11:34 25.5 °C 18.2 °C 1016.1 hPa OSO 3.9 km/h 11.1 km/h 64.1% 0.0 mm
11:39 25.5 °C 18.2 °C 1016.0 hPa Oeste 4 km/h 11.3 km/h 64.3% 0.0 mm
11:44 25.6 °C 18.3 °C 1016.0 hPa North 5 km/h 9.7 km/h 64.2% 0.0 mm
11:49 25.8 °C 18.5 °C 1016.0 hPa NE 4.7 km/h 9.7 km/h 64.4% 0.0 mm
11:54 26.1 °C 18.5 °C 1015.9 hPa OSO 3.2 km/h 8.4 km/h 63.2% 0.0 mm
11:59 26.2 °C 18.6 °C 1015.9 hPa SSO 3.3 km/h 10 km/h 63% 0.0 mm
12:04 26.3 °C 18.7 °C 1015.9 hPa Sur 3.9 km/h 10.3 km/h 62.8% 0.0 mm
12:09 26.6 °C 18.7 °C 1015.8 hPa OSO 3.9 km/h 11.3 km/h 62% 0.0 mm
12:14 26.7 °C 18.6 °C 1015.7 hPa North 3.9 km/h 11.1 km/h 61.3% 0.0 mm
12:19 26.8 °C 18.8 °C 1015.7 hPa ESE 4.1 km/h 11.3 km/h 61.4% 0.0 mm
12:24 26.9 °C 18.7 °C 1015.5 hPa SSE 5.8 km/h 11.3 km/h 61% 0.0 mm
12:29 27.2 °C 18.9 °C 1015.5 hPa NE 5.6 km/h 11.3 km/h 60.8% 0.0 mm
12:34 27.4 °C 18.8 °C 1015.5 hPa ESE 4.7 km/h 10 km/h 59.6% 0.0 mm
12:39 27.4 °C 18.7 °C 1015.3 hPa SE 4.9 km/h 10 km/h 59% 0.0 mm
12:44 27.6 °C 18.7 °C 1015.3 hPa ESE 6.4 km/h 9.7 km/h 58.3% 0.0 mm
12:49 27.8 °C 18.8 °C 1015.3 hPa NNE 6.2 km/h 11.1 km/h 58.1% 0.0 mm
12:54 28 °C 18.7 °C 1015.1 hPa NE 5 km/h 13 km/h 56.9% 0.0 mm
12:59 28.2 °C 18.6 °C 1015.0 hPa Sur 4.9 km/h 12.9 km/h 56.2% 0.0 mm
13:04 28.3 °C 18.5 °C 1015.0 hPa SO 4.7 km/h 14.8 km/h 55.3% 0.0 mm
13:09 28.4 °C 18 °C 1014.8 hPa SO 5 km/h 14.8 km/h 53.3% 0.0 mm
13:14 28.4 °C 17.8 °C 1014.7 hPa NE 6.9 km/h 14.5 km/h 52.8% 0.0 mm
13:19 28.6 °C 17.7 °C 1014.7 hPa NNO 6.8 km/h 11.1 km/h 51.9% 0.0 mm
13:24 28.8 °C 17.4 °C 1014.5 hPa SE 5.8 km/h 16.7 km/h 50.3% 0.0 mm
13:29 28.8 °C 16.2 °C 1014.5 hPa ESE 6.3 km/h 20.9 km/h 46.5% 0.0 mm
13:34 29.1 °C 15.8 °C 1014.5 hPa SSE 9.5 km/h 24.5 km/h 44.7% 0.0 mm
13:39 29.1 °C 15.6 °C 1014.4 hPa SE 10.2 km/h 24.1 km/h 44% 0.0 mm
13:44 29.2 °C 15.9 °C 1014.4 hPa SE 14 km/h 20.9 km/h 44.6% 0.0 mm
13:49 29.3 °C 16.2 °C 1014.4 hPa SE 13.6 km/h 20.9 km/h 45.2% 0.0 mm
13:54 29.6 °C 16.6 °C 1014.2 hPa SE 11.1 km/h 20.4 km/h 45.5% 0.0 mm
13:59 29.7 °C 16.3 °C 1014.1 hPa SE 11.3 km/h 25.9 km/h 44.6% 0.0 mm
14:04 29.7 °C 16.4 °C 1014.1 hPa SE 11.9 km/h 25.7 km/h 44.9% 0.0 mm
14:09 29.6 °C 16.3 °C 1014.0 hPa ESE 11.9 km/h 24.1 km/h 44.8% 0.0 mm
14:14 29.7 °C 16.8 °C 1014.0 hPa SE 11.9 km/h 27.8 km/h 45.9% 0.0 mm
14:19 29.6 °C 16.8 °C 1014.0 hPa SE 12.4 km/h 27.8 km/h 46.2% 0.0 mm
14:24 29.6 °C 17 °C 1013.8 hPa SE 14.8 km/h 25.7 km/h 46.6% 0.0 mm
14:29 29.7 °C 16.7 °C 1013.7 hPa SSE 14.4 km/h 24.1 km/h 45.7% 0.0 mm
14:34 29.7 °C 16.5 °C 1013.7 hPa SSE 12.2 km/h 23.7 km/h 45.1% 0.0 mm
14:39 29.6 °C 16.7 °C 1013.5 hPa SE 12.2 km/h 25.9 km/h 45.8% 0.0 mm
14:44 29.6 °C 16.7 °C 1013.5 hPa SE 11.9 km/h 28.2 km/h 45.7% 0.0 mm
14:49 29.6 °C 16.7 °C 1013.5 hPa SE 12.5 km/h 27.4 km/h 46% 0.0 mm
14:54 29.7 °C 16.3 °C 1013.3 hPa SE 15.6 km/h 22.5 km/h 44.4% 0.0 mm
14:59 29.8 °C 16.6 °C 1013.2 hPa SE 15.2 km/h 27.4 km/h 44.8% 0.0 mm
15:04 29.9 °C 16.7 °C 1013.2 hPa SSE 13.7 km/h 27.8 km/h 45% 0.0 mm
15:09 29.9 °C 16.7 °C 1013.0 hPa SE 14 km/h 28.2 km/h 45% 0.0 mm
15:14 29.9 °C 16.6 °C 1012.9 hPa SE 16.1 km/h 27.8 km/h 45% 0.0 mm
15:19 29.9 °C 16.7 °C 1012.9 hPa SE 16.1 km/h 32.3 km/h 45% 0.0 mm
15:24 30.1 °C 16.8 °C 1012.7 hPa SE 16.4 km/h 32.2 km/h 45% 0.0 mm
15:29 30.2 °C 17.1 °C 1012.7 hPa ESE 16.3 km/h 29 km/h 45.4% 0.0 mm
15:34 30.2 °C 17 °C 1012.7 hPa SSE 15.6 km/h 27.8 km/h 45.4% 0.0 mm
15:39 30 °C 17.3 °C 1012.5 hPa SE 15.9 km/h 28.2 km/h 46.6% 0.0 mm
15:44 29.7 °C 17.4 °C 1012.5 hPa SE 17.2 km/h 29.6 km/h 47.6% 0.0 mm
15:49 29.5 °C 17.6 °C 1012.5 hPa SE 17.2 km/h 33.3 km/h 48.6% 0.0 mm
15:54 29.3 °C 17.8 °C 1012.4 hPa SE 17.2 km/h 33.8 km/h 49.9% 0.0 mm
15:59 29.3 °C 17.6 °C 1012.4 hPa SE 16.5 km/h 24.5 km/h 49.4% 0.0 mm
16:04 29.3 °C 17.8 °C 1012.5 hPa SE 13.7 km/h 25.9 km/h 50.1% 0.0 mm
16:09 29.2 °C 17.1 °C 1012.5 hPa SSE 13.7 km/h 25.7 km/h 48.2% 0.0 mm
16:14 29.2 °C 16.4 °C 1012.5 hPa SE 13.7 km/h 25.9 km/h 46.2% 0.0 mm
16:19 29.1 °C 16.2 °C 1012.5 hPa SSE 14.1 km/h 25.9 km/h 45.7% 0.0 mm
16:24 28.9 °C 15.7 °C 1012.4 hPa Sur 16.1 km/h 30.9 km/h 44.9% 0.0 mm
16:29 28.7 °C 15.5 °C 1012.4 hPa SSE 16.3 km/h 32.2 km/h 44.6% 0.0 mm
16:34 28.6 °C 15.4 °C 1012.4 hPa SSE 17.2 km/h 27.4 km/h 44.7% 0.0 mm
16:39 28.4 °C 15.9 °C 1012.4 hPa SSE 17.4 km/h 30.6 km/h 46.8% 0.0 mm
16:44 28.2 °C 16.8 °C 1012.4 hPa Sur 18.4 km/h 30.6 km/h 50% 0.0 mm
16:49 28 °C 17.3 °C 1012.4 hPa SSE 18.3 km/h 30.6 km/h 52.3% 0.0 mm
16:54 27.9 °C 17.4 °C 1012.3 hPa SSE 18 km/h 27.4 km/h 53% 0.0 mm
16:59 27.8 °C 17.6 °C 1012.3 hPa Sur 17.1 km/h 22.5 km/h 53.6% 0.0 mm
17:04 27.8 °C 17.7 °C 1012.3 hPa Sur 13.1 km/h 24.1 km/h 54.1% 0.0 mm
17:09 27.7 °C 17.8 °C 1012.2 hPa Sur 13.2 km/h 24.1 km/h 55% 0.0 mm
17:14 27.6 °C 17.8 °C 1012.2 hPa Sur 14 km/h 25.9 km/h 55.3% 0.0 mm
17:19 27.4 °C 17.9 °C 1012.2 hPa SSE 14.3 km/h 25.9 km/h 56% 0.0 mm
17:24 27.3 °C 17.7 °C 1012.2 hPa SSE 15.6 km/h 27.4 km/h 56% 0.0 mm
17:29 27.1 °C 17.7 °C 1012.2 hPa Sur 15.7 km/h 27.8 km/h 56.5% 0.0 mm
17:34 27 °C 17.9 °C 1012.2 hPa Sur 16.1 km/h 21.7 km/h 57.5% 0.0 mm
17:39 26.9 °C 18 °C 1012.2 hPa SSE 15.7 km/h 22.5 km/h 58.2% 0.0 mm
17:44 26.9 °C 18.3 °C 1012.2 hPa SSE 13.7 km/h 20.9 km/h 59.4% 0.0 mm
17:49 26.8 °C 18.5 °C 1012.2 hPa SSE 13.1 km/h 20.9 km/h 60.4% 0.0 mm
17:54 26.7 °C 18.7 °C 1012.0 hPa Sur 10 km/h 16.1 km/h 61.4% 0.0 mm
17:59 26.6 °C 18.9 °C 1011.9 hPa SSE 9.9 km/h 16.1 km/h 62.9% 0.0 mm
18:04 26.3 °C 19.1 °C 1011.9 hPa SSE 9.5 km/h 14.5 km/h 64.5% 0.0 mm
18:09 26.2 °C 19.2 °C 1011.7 hPa SSE 9.4 km/h 13 km/h 65.3% 0.0 mm
18:14 26.1 °C 19.3 °C 1011.6 hPa SSE 8.7 km/h 13 km/h 66.3% 0.0 mm
18:19 26.1 °C 19.3 °C 1011.6 hPa Sur 8.5 km/h 12.9 km/h 66.4% 0.0 mm
18:24 26.1 °C 19.5 °C 1011.5 hPa Sur 7.6 km/h 11.3 km/h 67.2% 0.0 mm
18:29 26.1 °C 19.3 °C 1011.5 hPa Sur 7.1 km/h 9.3 km/h 66.3% 0.0 mm
18:34 26.1 °C 19.2 °C 1011.5 hPa Sur 4.7 km/h 9.7 km/h 66% 0.0 mm
18:39 26.2 °C 19.4 °C 1011.3 hPa SSO 4.3 km/h 7.4 km/h 66.1% 0.0 mm
18:44 26.4 °C 19.4 °C 1011.3 hPa NNE 2.3 km/h 9.3 km/h 65.3% 0.0 mm
18:49 26.6 °C 19.6 °C 1011.4 hPa NE 2.8 km/h 11.1 km/h 65.5% 0.0 mm
18:54 26.6 °C 19.6 °C 1011.4 hPa NE 5.8 km/h 11.3 km/h 65.2% 0.0 mm
18:59 26.7 °C 19.3 °C 1011.4 hPa NE 6 km/h 11.3 km/h 64.1% 0.0 mm
19:04 26.7 °C 19.3 °C 1011.6 hPa NE 6.9 km/h 11.3 km/h 63.8% 0.0 mm
19:09 26.7 °C 19.2 °C 1011.6 hPa ENE 6.9 km/h 11.3 km/h 63.4% 0.0 mm
19:14 26.8 °C 19.3 °C 1011.6 hPa NE 6.9 km/h 9.7 km/h 63.7% 0.0 mm
19:19 26.8 °C 19.3 °C 1011.7 hPa ENE 6.6 km/h 9.7 km/h 63.6% 0.0 mm
19:24 26.8 °C 19.4 °C 1011.7 hPa ENE 4.7 km/h 9.3 km/h 64% 0.0 mm
19:29 26.8 °C 19.4 °C 1011.7 hPa NNE 4.5 km/h 9.7 km/h 64% 0.0 mm
19:34 26.8 °C 19.5 °C 1011.7 hPa NNO 3.9 km/h 7.4 km/h 64.3% 0.0 mm
19:39 26.9 °C 19.8 °C 1011.6 hPa NO 3.7 km/h 8 km/h 65% 0.0 mm
19:44 26.9 °C 19.8 °C 1011.6 hPa North 2.9 km/h 8 km/h 65.4% 0.0 mm
19:49 26.7 °C 19.8 °C 1011.6 hPa NE 3.2 km/h 11.1 km/h 65.7% 0.0 mm
19:54 26.5 °C 19.8 °C 1011.5 hPa NE 5 km/h 11.3 km/h 66.7% 0.0 mm
19:59 26.3 °C 19.7 °C 1011.5 hPa Este 5 km/h 8 km/h 67% 0.0 mm
20:04 26.3 °C 19.7 °C 1011.5 hPa Este 5 km/h 9.3 km/h 67% 0.0 mm
20:09 26.3 °C 19.7 °C 1011.3 hPa Este 4.8 km/h 9.7 km/h 67% 0.0 mm
20:14 26.3 °C 19.7 °C 1011.3 hPa ENE 3.9 km/h 6.4 km/h 67% 0.0 mm
20:19 26.2 °C 19.7 °C 1011.5 hPa NE 3.9 km/h 7.6 km/h 67.5% 0.0 mm
20:24 26.1 °C 19.7 °C 1011.5 hPa NNE 3.9 km/h 8 km/h 68% 0.0 mm
20:29 26 °C 19.7 °C 1011.5 hPa NE 4 km/h 8 km/h 68.3% 0.0 mm
20:34 25.9 °C 19.8 °C 1011.5 hPa NE 4.7 km/h 6.9 km/h 69% 0.0 mm
20:39 25.8 °C 19.7 °C 1011.5 hPa NE 4.3 km/h 6.4 km/h 69% 0.0 mm
20:44 25.8 °C 19.8 °C 1011.5 hPa NE 2.3 km/h 6.9 km/h 69.6% 0.0 mm
20:49 25.7 °C 19.8 °C 1011.7 hPa NE 2.4 km/h 8 km/h 70% 0.0 mm
20:54 25.6 °C 19.7 °C 1011.7 hPa NE 3.2 km/h 8.7 km/h 70% 0.0 mm
20:59 25.4 °C 19.6 °C 1011.7 hPa NE 3.6 km/h 9.7 km/h 70% 0.0 mm
21:04 25.4 °C 19.5 °C 1011.7 hPa NNE 5 km/h 9.7 km/h 70% 0.0 mm
21:09 25.3 °C 19.4 °C 1011.7 hPa NE 4.8 km/h 7.4 km/h 70% 0.0 mm
21:14 25.2 °C 19.4 °C 1011.7 hPa Este 3.9 km/h 8 km/h 70% 0.0 mm
21:19 25.2 °C 19.3 °C 1011.7 hPa ESE 4 km/h 10 km/h 70% 0.0 mm
21:24 24.9 °C 19.1 °C 1011.7 hPa ESE 4.7 km/h 11.9 km/h 70% 0.0 mm
21:29 24.8 °C 18.9 °C 1011.7 hPa ESE 5 km/h 11.3 km/h 70% 0.0 mm
21:34 24.7 °C 18.9 °C 1011.7 hPa ESE 6.9 km/h 14.8 km/h 70.1% 0.0 mm
21:39 24.7 °C 18.5 °C 1011.7 hPa ESE 6.8 km/h 14.5 km/h 68.6% 0.0 mm
21:44 24.6 °C 18.1 °C 1011.7 hPa ESE 5.8 km/h 12.9 km/h 67.4% 0.0 mm
21:49 24.5 °C 17.8 °C 1011.7 hPa ESE 6 km/h 9.7 km/h 66.2% 0.0 mm
21:54 24.5 °C 17.6 °C 1011.7 hPa SE 6.9 km/h 9.7 km/h 65.5% 0.0 mm
21:59 24.6 °C 17.5 °C 1011.7 hPa SE 6.7 km/h 11.1 km/h 64.9% 0.0 mm
22:04 24.6 °C 17.4 °C 1011.8 hPa ESE 5.8 km/h 11.3 km/h 64.3% 0.0 mm
22:09 24.6 °C 17.5 °C 1011.8 hPa Este 5.6 km/h 9.7 km/h 65% 0.0 mm
22:14 24.5 °C 17.5 °C 1011.8 hPa NE 5 km/h 9.7 km/h 65.1% 0.0 mm
22:19 24.5 °C 17.6 °C 1011.8 hPa NE 4.9 km/h 8 km/h 65.7% 0.0 mm
22:24 24.4 °C 17.6 °C 1011.8 hPa ENE 4.7 km/h 8 km/h 66.1% 0.0 mm
22:29 24.4 °C 17.9 °C 1011.8 hPa ESE 4.7 km/h 8.4 km/h 67% 0.0 mm
22:34 24.4 °C 18 °C 1011.8 hPa ESE 4.7 km/h 8.4 km/h 67.6% 0.0 mm
22:39 24.4 °C 18.1 °C 1011.7 hPa SE 4.7 km/h 8 km/h 68% 0.0 mm
22:44 24.4 °C 18.1 °C 1011.7 hPa SE 4.7 km/h 8 km/h 68% 0.0 mm
22:49 24.4 °C 18.3 °C 1011.7 hPa SE 4.3 km/h 4.8 km/h 68.7% 0.0 mm
22:54 24.3 °C 18 °C 1011.6 hPa SE 2.3 km/h 4.8 km/h 68.1% 0.0 mm
22:59 24.2 °C 18.1 °C 1011.6 hPa SSE 2.2 km/h 4.8 km/h 68.5% 0.0 mm
23:04 24.2 °C 18.1 °C 1011.7 hPa ONO 2.2 km/h 7.6 km/h 69% 0.0 mm
23:09 24 °C 17.9 °C 1011.7 hPa NO 2.6 km/h 8.4 km/h 69% 0.0 mm
23:14 23.8 °C 17.9 °C 1011.7 hPa ONO 4.7 km/h 8.4 km/h 69.5% 0.0 mm
23:19 23.7 °C 17.9 °C 1011.7 hPa ONO 4.5 km/h 8 km/h 70% 0.0 mm
23:24 23.7 °C 18 °C 1011.7 hPa ONO 3.9 km/h 8 km/h 70.6% 0.0 mm
23:29 23.6 °C 18.1 °C 1011.7 hPa NO 4 km/h 10 km/h 71% 0.0 mm
23:34 23.5 °C 18 °C 1011.7 hPa NO 5 km/h 9.7 km/h 71% 0.0 mm
23:39 23.4 °C 17.8 °C 1011.7 hPa NO 4.9 km/h 9.7 km/h 71% 0.0 mm
23:44 23.3 °C 17.7 °C 1011.7 hPa NO 4.7 km/h 9.7 km/h 71% 0.0 mm
23:49 23.2 °C 17.6 °C 1011.7 hPa NNO 4.7 km/h 10 km/h 71% 0.0 mm
23:54 23.1 °C 17.6 °C 1011.7 hPa North 5 km/h 9.7 km/h 71% 0.0 mm
23:59 23.1 °C 17.6 °C 1011.7 hPa NNE 4.8 km/h 8 km/h 71% 0.0 mm
Murcia-Puente Tocinos, España
Compliments of Weather Underground - 2.75 mb

La estación de MeteoMurcia.com, publica sus datos en los siguientes proyectos:

Weather Underground PWS IMURCIAP2 Meteoclimatic www.awekas.at

W3Counter
Web Analytics